ADDS TAF Data INFO
IDs: Format: Raw Decoded Include METARs

Data at: 1011 UTC 19 Nov 2017

KSDL 190953Z 00000KT 10SM CLR 12/M07 A3006 RMK AO2 SLP164 T01171067 $

KSDL 190520Z 1906/2006 VRB03KT P6SM FEW250
  TEMPO 1916/1919 06005KT
  FM192200 23004KT P6SM FEW250
  FM200200 VRB03KT P6SM FEW250